Time;durP1;ratioP1;P1;durP2;ratioP2;P2;SDS_P1;SDS_P2;PMS_P1;PMS_P2;Temp;Humidity;BMP_temperature;BMP_pressure;BME280_temperature;BME280_humidity;BME280_pressure;Samples;Min_cycle;Max_cycle;Signal;HPM_P1;HPM_P2
2024/01/16 00:01:18;;;;;;;5.97;4.07;;;;;0.70;100550.00;;;;9838755;29;20240;-79
2024/01/16 00:06:19;;;;;;;12.87;4.50;;;;;0.60;100532.00;;;;9825140;29;20787;-79
2024/01/16 00:11:20;;;;;;;9.70;4.13;;;;;0.60;100539.00;;;;9853345;29;20848;-78
2024/01/16 00:16:21;;;;;;;10.37;4.00;;;;;0.40;100535.00;;;;9837509;29;20227;-77
2024/01/16 00:21:22;;;;;;;8.80;3.87;;;;;0.40;100543.00;;;;9827685;29;20243;-77
2024/01/16 00:26:23;;;;;;;9.00;3.60;;;;;0.30;100550.00;;;;9826896;29;20716;-79
2024/01/16 00:31:24;;;;;;;11.83;4.20;;;;;0.30;100554.00;;;;9844650;29;20313;-82
2024/01/16 00:36:26;;;;;;;8.43;4.43;;;;;0.30;100562.00;;;;10470068;24;20236;-80
2024/01/16 01:43:36;;;;;;;9.97;4.03;;;;;0.20;100598.00;;;;10488786;24;20222;-78
2024/01/16 01:48:41;;;;;;;14.13;5.20;;;;;0.20;100601.00;;;;9821580;29;20278;-76
2024/01/16 01:53:44;;;;;;;10.37;4.80;;;;;0.10;100595.00;;;;9823040;29;20255;-81
2024/01/16 01:58:47;;;;;;;14.37;4.67;;;;;0.00;100596.00;;;;9819884;29;20545;-76
2024/01/16 02:03:50;;;;;;;15.87;5.77;;;;;0.00;100596.00;;;;9841736;29;20316;-75
2024/01/16 02:08:51;;;;;;;12.00;6.17;;;;;-0.10;100586.00;;;;9821238;29;20689;-75
2024/01/16 02:13:52;;;;;;;9.90;4.73;;;;;-0.20;100590.00;;;;9817396;29;20235;-78
2024/01/16 02:18:53;;;;;;;14.20;5.70;;;;;-0.30;100579.00;;;;9822119;29;20906;-81
2024/01/16 02:23:55;;;;;;;11.77;4.73;;;;;-0.30;100583.00;;;;9819973;29;20248;-76
2024/01/16 02:28:56;;;;;;;9.50;4.10;;;;;-0.20;100589.00;;;;9834519;29;20275;-77
2024/01/16 02:33:58;;;;;;;16.63;5.47;;;;;-0.20;100582.00;;;;9807119;29;20263;-74
2024/01/16 02:38:59;;;;;;;14.57;4.63;;;;;-0.30;100571.00;;;;9853507;29;20625;-76
2024/01/16 02:44:01;;;;;;;15.73;5.10;;;;;-0.40;100590.00;;;;9798761;29;20625;-75
2024/01/16 02:49:02;;;;;;;11.47;4.77;;;;;-0.50;100572.00;;;;9824975;29;20232;-78
2024/01/16 02:54:06;;;;;;;9.87;4.67;;;;;-0.60;100574.00;;;;9821181;29;20232;-76
2024/01/16 02:59:08;;;;;;;14.27;5.27;;;;;-0.60;100582.00;;;;9818105;29;20236;-76
2024/01/16 03:04:10;;;;;;;9.17;4.20;;;;;-0.70;100563.00;;;;9804329;29;20251;-79
2024/01/16 03:09:12;;;;;;;10.73;4.40;;;;;-0.70;100562.00;;;;9855558;29;20231;-76
2024/01/16 03:14:13;;;;;;;11.43;5.10;;;;;-0.60;100562.00;;;;9821298;29;20285;-77
2024/01/16 03:19:14;;;;;;;13.70;5.33;;;;;-0.60;100550.00;;;;9807229;29;20327;-79
2024/01/16 03:24:16;;;;;;;9.53;5.23;;;;;-0.50;100556.00;;;;9804897;29;20236;-78
2024/01/16 03:29:17;;;;;;;18.33;4.80;;;;;-0.50;100552.00;;;;9806679;30;20236;-79
2024/01/16 03:34:21;;;;;;;11.23;4.47;;;;;-0.50;100552.00;;;;9823627;30;20247;-78
2024/01/16 03:39:22;;;;;;;9.63;4.20;;;;;-0.50;100551.00;;;;9829746;30;20339;-79
2024/01/16 03:44:24;;;;;;;7.27;4.30;;;;;-0.50;100555.00;;;;9824331;29;20366;-79
2024/01/16 03:49:25;;;;;;;10.70;4.40;;;;;-0.50;100550.00;;;;9852468;29;20242;-79
2024/01/16 03:54:26;;;;;;;15.23;4.80;;;;;-0.50;100540.00;;;;9806136;29;20232;-80
2024/01/16 03:59:28;;;;;;;10.37;4.27;;;;;-0.40;100544.00;;;;9815586;29;20250;-79
2024/01/16 04:04:29;;;;;;;10.30;4.10;;;;;-0.40;100546.00;;;;9827402;29;21133;-79
2024/01/16 04:09:30;;;;;;;11.87;4.83;;;;;-0.50;100538.00;;;;9813872;29;20232;-79
2024/01/16 04:14:31;;;;;;;8.10;4.40;;;;;-0.50;100536.00;;;;9860159;29;20251;-78
2024/01/16 04:19:33;;;;;;;7.73;4.10;;;;;-0.50;100525.00;;;;9840279;29;20228;-78
2024/01/16 04:24:34;;;;;;;11.40;4.73;;;;;-0.50;100510.00;;;;9820057;30;20236;-79
2024/01/16 04:29:37;;;;;;;13.40;4.73;;;;;-0.50;100519.00;;;;9830153;29;20232;-79
2024/01/16 04:34:41;;;;;;;10.33;4.40;;;;;-0.60;100511.00;;;;9806280;30;20259;-80
2024/01/16 04:39:42;;;;;;;12.43;4.07;;;;;-0.60;100510.00;;;;9838855;29;20239;-79
2024/01/16 04:44:43;;;;;;;8.10;4.97;;;;;-0.70;100504.00;;;;9796874;29;20263;-79
2024/01/16 04:49:45;;;;;;;10.60;4.37;;;;;-0.70;100490.00;;;;9827529;29;20244;-79
2024/01/16 04:54:46;;;;;;;16.93;5.40;;;;;-0.70;100492.00;;;;9844721;29;20319;-80
2024/01/16 04:59:47;;;;;;;13.70;5.07;;;;;-0.80;100482.00;;;;9850710;29;20240;-80
2024/01/16 05:04:51;;;;;;;13.03;5.20;;;;;-0.90;100476.00;;;;9827960;29;20914;-78
2024/01/16 05:09:53;;;;;;;7.00;4.13;;;;;-0.90;100484.00;;;;9817528;29;20382;-80
2024/01/16 05:14:54;;;;;;;15.90;5.13;;;;;-1.00;100471.00;;;;9835074;29;20923;-78
2024/01/16 05:19:56;;;;;;;11.40;4.93;;;;;-1.00;100475.00;;;;9833920;29;20291;-80
2024/01/16 05:24:59;;;;;;;11.37;5.40;;;;;-1.10;100475.00;;;;9833946;29;20654;-79
2024/01/16 05:30:00;;;;;;;15.83;5.47;;;;;-1.10;100477.00;;;;9825434;29;20608;-79
2024/01/16 05:35:02;;;;;;;20.57;6.60;;;;;-1.20;100481.00;;;;9806258;30;20228;-79
2024/01/16 05:40:03;;;;;;;19.97;5.90;;;;;-1.30;100480.00;;;;9813069;29;20266;-78
2024/01/16 05:45:05;;;;;;;13.90;4.87;;;;;-1.30;100484.00;;;;9810932;29;20243;-81
2024/01/16 05:50:07;;;;;;;21.43;6.17;;;;;-1.40;100475.00;;;;9812476;29;20271;-79
2024/01/16 05:55:08;;;;;;;14.50;5.13;;;;;-1.50;100478.00;;;;9819244;29;20231;-79
2024/01/16 06:00:10;;;;;;;16.43;5.10;;;;;-1.50;100474.00;;;;9834899;29;20235;-78
2024/01/16 06:05:11;;;;;;;24.03;6.20;;;;;-1.50;100461.00;;;;9822838;30;20236;-79
2024/01/16 06:10:13;;;;;;;14.13;5.10;;;;;-1.50;100462.00;;;;9810456;29;20297;-79
2024/01/16 06:15:15;;;;;;;13.53;5.03;;;;;-1.50;100465.00;;;;9793402;29;20583;-79
2024/01/16 06:20:16;;;;;;;11.00;4.53;;;;;-1.50;100461.00;;;;9835572;29;20649;-80
2024/01/16 06:25:17;;;;;;;14.33;5.43;;;;;-1.50;100462.00;;;;9845434;29;20232;-80
2024/01/16 06:30:18;;;;;;;16.07;5.43;;;;;-1.50;100458.00;;;;9824645;29;20316;-80
2024/01/16 06:35:20;;;;;;;12.00;5.27;;;;;-1.40;100462.00;;;;9823660;29;20239;-80
2024/01/16 06:40:22;;;;;;;11.57;5.30;;;;;-1.30;100472.00;;;;9829080;29;20230;-80
2024/01/16 06:45:23;;;;;;;12.93;5.23;;;;;-1.30;100464.00;;;;9810824;29;20252;-80
2024/01/16 06:50:24;;;;;;;11.80;5.13;;;;;-1.30;100463.00;;;;9841786;29;20982;-80
2024/01/16 06:55:25;;;;;;;9.73;5.00;;;;;-1.20;100464.00;;;;9825409;29;20240;-80
2024/01/16 07:00:26;;;;;;;11.07;6.17;;;;;-1.20;100469.00;;;;9826484;30;20362;-80
2024/01/16 07:05:29;;;;;;;10.53;5.00;;;;;-1.20;100469.00;;;;9808954;30;20240;-80
2024/01/16 07:10:31;;;;;;;7.20;4.47;;;;;-1.30;100462.00;;;;9810972;29;20236;-79
2024/01/16 07:15:32;;;;;;;11.87;5.37;;;;;-1.30;100472.00;;;;9842954;29;20225;-80
2024/01/16 07:20:33;;;;;;;14.23;4.83;;;;;-1.20;100477.00;;;;9845644;29;20338;-80
2024/01/16 07:25:34;;;;;;;10.77;4.90;;;;;-1.20;100471.00;;;;9822653;29;20237;-80
2024/01/16 07:30:36;;;;;;;10.70;4.97;;;;;-1.20;100478.00;;;;9822279;29;20293;-80
2024/01/16 07:35:40;;;;;;;10.27;5.20;;;;;-1.10;100483.00;;;;9824179;29;20707;-80
2024/01/16 07:40:42;;;;;;;14.53;5.90;;;;;-1.10;100481.00;;;;9813828;29;20227;-80
2024/01/16 07:45:43;;;;;;;11.50;5.73;;;;;-1.10;100489.00;;;;9812185;29;20596;-80
2024/01/16 07:50:45;;;;;;;13.47;5.67;;;;;-1.00;100488.00;;;;9824635;29;20236;-79
2024/01/16 07:55:46;;;;;;;14.73;6.00;;;;;-1.00;100503.00;;;;9813946;29;20232;-81
2024/01/16 08:00:48;;;;;;;10.23;5.30;;;;;-0.90;100506.00;;;;9822390;29;21709;-80
2024/01/16 08:05:50;;;;;;;13.30;5.07;;;;;-0.80;100507.00;;;;9815983;29;20858;-80
2024/01/16 08:10:51;;;;;;;9.80;5.73;;;;;-0.70;100510.00;;;;9824363;30;20224;-80
2024/01/16 08:15:52;;;;;;;12.80;5.60;;;;;-0.70;100512.00;;;;9811620;29;20236;-80
2024/01/16 08:20:53;;;;;;;8.47;5.17;;;;;-0.60;100522.00;;;;9810775;29;20607;-80
2024/01/16 08:25:54;;;;;;;11.03;5.07;;;;;-0.60;100524.00;;;;9812000;29;20237;-81
2024/01/16 08:30:55;;;;;;;8.73;4.87;;;;;-0.50;100528.00;;;;9833872;29;20278;-80
2024/01/16 08:35:57;;;;;;;9.80;4.73;;;;;-0.50;100542.00;;;;9789910;29;20691;-81
2024/01/16 08:40:58;;;;;;;10.57;4.60;;;;;-0.40;100547.00;;;;9827518;29;20236;-83
2024/01/16 08:45:59;;;;;;;11.70;4.83;;;;;-0.30;100538.00;;;;9812392;29;20856;-83
2024/01/16 08:51:05;;;;;;;12.03;4.70;;;;;-0.10;100531.00;;;;9816114;29;20600;-84
2024/01/16 08:56:07;;;;;;;12.93;4.83;;;;;-0.10;100523.00;;;;9830530;29;20363;-84
2024/01/16 09:01:10;;;;;;;13.50;5.00;;;;;-0.10;100516.00;;;;9858439;29;20248;-83
2024/01/16 09:06:11;;;;;;;12.70;4.80;;;;;0.00;100512.00;;;;9816998;29;20818;-84
2024/01/16 09:11:13;;;;;;;9.37;5.03;;;;;0.00;100512.00;;;;9822278;29;20236;-85
2024/01/16 09:16:14;;;;;;;14.70;4.97;;;;;0.00;100504.00;;;;9850557;29;20228;-84
2024/01/16 09:21:16;;;;;;;10.13;4.07;;;;;0.00;100507.00;;;;9811706;29;20263;-84
2024/01/16 09:26:17;;;;;;;7.43;4.23;;;;;0.10;100501.00;;;;9795739;29;20268;-85
2024/01/16 09:31:18;;;;;;;10.83;4.90;;;;;0.10;100492.00;;;;9793464;29;20239;-84
2024/01/16 09:36:19;;;;;;;11.47;3.77;;;;;0.30;100491.00;;;;9824465;29;20323;-83
2024/01/16 09:41:26;;;;;;;10.03;3.80;;;;;0.60;100487.00;;;;9825884;29;20327;-82
2024/01/16 09:46:30;;;;;;;10.10;3.90;;;;;0.40;100493.00;;;;9818132;29;20252;-82
2024/01/16 09:51:31;;;;;;;7.37;3.83;;;;;0.50;100483.00;;;;9815552;29;20680;-81
2024/01/16 09:56:34;;;;;;;8.83;4.47;;;;;0.60;100479.00;;;;9827677;29;20239;-80
2024/01/16 10:01:36;;;;;;;12.70;4.13;;;;;1.10;100478.00;;;;9820573;29;20294;-81
2024/01/16 10:06:39;;;;;;;8.63;3.30;;;;;1.60;100470.00;;;;9821062;29;20238;-82
2024/01/16 10:11:41;;;;;;;8.07;3.83;;;;;1.70;100465.00;;;;9816674;29;20308;-82
2024/01/16 10:17:05;;;;;;;5.63;3.70;;;;;1.60;100480.00;;;;9785160;29;20268;-82
2024/01/16 10:22:06;;;;;;;7.93;3.23;;;;;1.50;100464.00;;;;9833591;29;20992;-80
2024/01/16 10:27:07;;;;;;;7.33;3.50;;;;;2.10;100467.00;;;;9822674;29;20240;-81
2024/01/16 10:32:09;;;;;;;7.73;3.67;;;;;2.60;100470.00;;;;9815523;29;20271;-79
2024/01/16 10:37:11;;;;;;;14.43;4.20;;;;;2.90;100476.00;;;;9815318;29;21003;-79
2024/01/16 10:42:15;;;;;;;7.33;3.30;;;;;3.20;100473.00;;;;9842615;29;20566;-79
2024/01/16 10:47:16;;;;;;;9.37;3.30;;;;;3.40;100466.00;;;;9815821;29;20232;-79
2024/01/16 10:52:18;;;;;;;8.83;3.80;;;;;3.70;100463.00;;;;9828269;29;20294;-80
2024/01/16 10:57:20;;;;;;;7.57;3.80;;;;;3.90;100458.00;;;;9827844;29;20235;-80
2024/01/16 11:02:27;;;;;;;8.00;3.70;;;;;4.20;100460.00;;;;9797011;29;20263;-87
2024/01/16 11:07:28;;;;;;;6.03;3.00;;;;;4.30;100456.00;;;;9844615;29;20248;-85
2024/01/16 11:12:30;;;;;;;7.17;3.60;;;;;4.40;100451.00;;;;9807583;29;20232;-85
2024/01/16 11:17:32;;;;;;;11.50;3.70;;;;;4.50;100454.00;;;;9832624;29;20229;-87
2024/01/16 11:22:36;;;;;;;9.47;3.90;;;;;4.60;100444.00;;;;9857119;29;20277;-85
2024/01/16 11:27:38;;;;;;;9.63;3.70;;;;;4.70;100448.00;;;;9806792;29;20244;-85
2024/01/16 11:32:40;;;;;;;8.43;2.90;;;;;4.80;100436.00;;;;9815342;29;20881;-84
2024/01/16 11:37:43;;;;;;;11.83;3.37;;;;;4.90;100434.00;;;;9829526;29;21188;-84
2024/01/16 11:42:44;;;;;;;10.83;3.17;;;;;4.90;100443.00;;;;9825673;30;20239;-83
2024/01/16 11:47:45;;;;;;;8.93;3.63;;;;;4.90;100426.00;;;;9799686;30;20238;-84
2024/01/16 11:52:47;;;;;;;7.60;2.93;;;;;5.00;100433.00;;;;9832743;29;20224;-85
2024/01/16 11:58:15;;;;;;;26.60;10.27;;;;;5.10;100422.00;;;;9810187;30;20224;-83
2024/01/16 12:03:19;;;;;;;16.20;5.70;;;;;5.10;100412.00;;;;9790416;30;20243;-83
2024/01/16 12:08:37;;;;;;;19.63;8.43;;;;;5.00;100401.00;;;;9822051;29;20243;-84
2024/01/16 12:13:39;;;;;;;14.57;9.17;;;;;5.00;100395.00;;;;9802293;29;20232;-85
2024/01/16 12:18:40;;;;;;;10.33;4.27;;;;;5.10;100389.00;;;;9819581;29;20242;-86
2024/01/16 12:23:46;;;;;;;7.07;3.00;;;;;5.00;100388.00;;;;9804060;29;20232;-85
2024/01/16 12:29:01;;;;;;;7.83;4.00;;;;;5.10;100382.00;;;;9801479;29;20240;-85
2024/01/16 12:34:09;;;;;;;7.80;3.60;;;;;4.50;100387.00;;;;9822939;29;20326;-86
2024/01/16 12:39:12;;;;;;;9.63;3.30;;;;;4.80;100377.00;;;;9837187;29;20240;-87
2024/01/16 12:44:13;;;;;;;5.33;3.17;;;;;5.00;100379.00;;;;9809230;30;20240;-86
2024/01/16 12:49:18;;;;;;;8.87;2.70;;;;;5.00;100377.00;;;;9842556;29;20235;-86
2024/01/16 12:54:22;;;;;;;9.37;3.50;;;;;4.90;100374.00;;;;9824960;30;20232;-84
2024/01/16 12:59:29;;;;;;;7.10;3.13;;;;;4.90;100381.00;;;;9848601;29;20243;-82
2024/01/16 13:04:30;;;;;;;10.57;4.00;;;;;4.90;100356.00;;;;9826398;29;20941;-84
2024/01/16 13:09:31;;;;;;;7.90;3.50;;;;;4.40;100348.00;;;;9803337;29;20228;-83
2024/01/16 13:14:33;;;;;;;7.07;3.63;;;;;4.60;100341.00;;;;9812486;29;20235;-84
2024/01/16 13:19:36;;;;;;;10.67;4.07;;;;;4.30;100334.00;;;;9811774;30;20274;-83
2024/01/16 13:24:37;;;;;;;5.03;2.83;;;;;4.40;100314.00;;;;9803943;29;20240;-84
2024/01/16 13:29:40;;;;;;;8.13;3.03;;;;;4.20;100307.00;;;;9820193;30;20239;-84
2024/01/16 13:34:46;;;;;;;8.40;3.73;;;;;4.20;100307.00;;;;9835730;29;20325;-84
2024/01/16 13:39:47;;;;;;;8.80;3.50;;;;;4.10;100306.00;;;;9830236;29;20224;-83
2024/01/16 13:44:48;;;;;;;8.93;3.80;;;;;4.10;100303.00;;;;9817981;29;20654;-84
2024/01/16 13:49:50;;;;;;;8.40;3.47;;;;;4.00;100294.00;;;;9845156;29;20729;-84
2024/01/16 13:54:51;;;;;;;5.60;2.93;;;;;3.80;100276.00;;;;9831751;29;20762;-83
2024/01/16 13:59:53;;;;;;;6.83;3.00;;;;;3.80;100264.00;;;;9859535;29;20784;-84
2024/01/16 14:04:54;;;;;;;7.70;2.83;;;;;3.80;100257.00;;;;9813563;29;20244;-84
2024/01/16 14:09:55;;;;;;;7.03;3.03;;;;;3.80;100256.00;;;;9852223;29;20755;-83
2024/01/16 14:14:56;;;;;;;6.83;2.57;;;;;3.80;100249.00;;;;9833587;29;20811;-84
2024/01/16 14:19:59;;;;;;;10.23;3.13;;;;;3.70;100247.00;;;;9820381;29;20264;-83
2024/01/16 14:25:00;;;;;;;5.20;2.33;;;;;3.30;100234.00;;;;9819705;30;20972;-84
2024/01/16 14:30:02;;;;;;;5.27;2.93;;;;;3.00;100233.00;;;;9813831;29;20236;-83
2024/01/16 14:35:09;;;;;;;7.03;2.70;;;;;2.80;100235.00;;;;9830446;29;20241;-83
2024/01/16 14:40:16;;;;;;;8.90;3.07;;;;;2.60;100235.00;;;;9816646;29;20283;-84
2024/01/16 14:45:18;;;;;;;9.53;3.00;;;;;2.40;100231.00;;;;9842978;29;20752;-83
2024/01/16 14:50:21;;;;;;;6.00;2.20;;;;;2.30;100224.00;;;;9811800;29;20307;-82
2024/01/16 14:55:25;;;;;;;7.33;2.70;;;;;2.20;100219.00;;;;9842261;29;20460;-83
2024/01/16 15:00:30;;;;;;;8.10;2.90;;;;;2.10;100208.00;;;;9814938;29;20246;-83
2024/01/16 15:05:31;;;;;;;5.80;3.03;;;;;2.00;100210.00;;;;9830006;30;20819;-83
2024/01/16 15:10:33;;;;;;;7.63;2.57;;;;;1.90;100212.00;;;;9814444;29;20232;-82
2024/01/16 15:15:34;;;;;;;5.70;3.37;;;;;1.80;100204.00;;;;9814962;29;20232;-82
2024/01/16 15:20:35;;;;;;;7.40;2.90;;;;;1.70;100215.00;;;;9809261;29;20314;-82
2024/01/16 15:25:37;;;;;;;7.00;3.30;;;;;1.50;100223.00;;;;9824598;29;20913;-83
2024/01/16 15:30:38;;;;;;;8.87;3.90;;;;;1.40;100227.00;;;;9852868;29;20240;-83
2024/01/16 15:35:39;;;;;;;7.37;3.07;;;;;1.20;100225.00;;;;9808055;29;20241;-82
2024/01/16 15:40:41;;;;;;;6.57;3.70;;;;;1.10;100223.00;;;;9818987;29;20246;-82
2024/01/16 15:45:42;;;;;;;5.50;3.00;;;;;1.00;100228.00;;;;9814992;30;20319;-82
2024/01/16 15:50:43;;;;;;;8.40;3.37;;;;;0.80;100232.00;;;;9800420;29;20243;-84
2024/01/16 15:55:44;;;;;;;7.13;3.70;;;;;0.60;100238.00;;;;9820788;29;20580;-83
2024/01/16 16:00:45;;;;;;;9.73;3.10;;;;;0.50;100222.00;;;;9829521;29;20258;-84
2024/01/16 16:05:46;;;;;;;9.00;3.90;;;;;0.50;100219.00;;;;9814325;29;20316;-84
2024/01/16 16:10:48;;;;;;;7.67;3.47;;;;;0.50;100223.00;;;;9830467;29;20254;-84
2024/01/16 16:15:50;;;;;;;6.90;4.57;;;;;0.40;100214.00;;;;9812964;29;20279;-83
2024/01/16 16:20:51;;;;;;;17.17;6.20;;;;;0.20;100207.00;;;;9828122;29;20233;-83
2024/01/16 16:25:52;;;;;;;19.20;9.83;;;;;0.00;100207.00;;;;9816297;30;20680;-83
2024/01/16 16:30:53;;;;;;;10.83;5.20;;;;;-0.10;100206.00;;;;9846939;29;20264;-83
2024/01/16 16:35:54;;;;;;;12.33;5.07;;;;;-0.20;100213.00;;;;9833435;29;20247;-83
2024/01/16 16:40:56;;;;;;;7.37;3.83;;;;;-0.20;100203.00;;;;9823485;29;20246;-85
2024/01/16 16:45:58;;;;;;;11.83;4.57;;;;;-0.20;100191.00;;;;9840828;29;20241;-86
2024/01/16 16:50:59;;;;;;;7.43;4.10;;;;;-0.20;100179.00;;;;9849232;29;20232;-85
2024/01/16 16:56:01;;;;;;;9.47;4.37;;;;;-0.30;100187.00;;;;9810144;29;20232;-86
2024/01/16 17:01:02;;;;;;;11.53;4.50;;;;;-0.40;100181.00;;;;9831128;29;20311;-86
2024/01/16 17:06:08;;;;;;;9.57;4.90;;;;;-0.50;100180.00;;;;9830113;29;20244;-87
2024/01/16 17:11:10;;;;;;;12.30;5.13;;;;;-0.60;100182.00;;;;9831127;30;20244;-87
2024/01/16 17:16:12;;;;;;;11.87;4.80;;;;;-0.70;100166.00;;;;9820931;29;20290;-87
2024/01/16 17:21:13;;;;;;;14.90;8.53;;;;;-0.70;100163.00;;;;9808305;29;20244;-88
2024/01/16 17:26:15;;;;;;;10.80;4.80;;;;;-0.70;100153.00;;;;9822757;29;20232;-88
2024/01/16 17:31:16;;;;;;;10.50;5.00;;;;;-0.80;100140.00;;;;9809021;29;20319;-87
2024/01/16 17:36:19;;;;;;;11.67;5.13;;;;;-0.80;100139.00;;;;9829702;30;20917;-88
2024/01/16 17:41:25;;;;;;;10.83;5.40;;;;;-0.80;100125.00;;;;9794399;29;20240;-88
2024/01/16 17:46:26;;;;;;;12.57;6.30;;;;;-0.90;100125.00;;;;9812392;29;20305;-87
2024/01/16 17:51:27;;;;;;;11.13;6.07;;;;;-1.00;100122.00;;;;9821905;29;20347;-88
2024/01/16 17:56:28;;;;;;;13.57;7.13;;;;;-0.90;100107.00;;;;9812340;30;20220;-86
2024/01/16 18:01:30;;;;;;;17.20;8.17;;;;;-1.00;100103.00;;;;9849338;29;20572;-86
2024/01/16 18:06:31;;;;;;;15.40;8.67;;;;;-1.00;100091.00;;;;9854626;29;20247;-85
2024/01/16 18:11:32;;;;;;;12.83;7.37;;;;;-1.10;100086.00;;;;9845246;29;20293;-78
2024/01/16 18:16:33;;;;;;;14.17;7.90;;;;;-1.00;100080.00;;;;9852654;29;20270;-78
2024/01/16 18:21:35;;;;;;;16.23;8.40;;;;;-1.00;100066.00;;;;9844634;29;20240;-79
2024/01/16 18:26:38;;;;;;;10.80;6.57;;;;;-1.00;100077.00;;;;9824480;29;20254;-78
2024/01/16 18:31:40;;;;;;;14.83;8.80;;;;;-1.00;100080.00;;;;9801789;29;20297;-81
2024/01/16 18:36:48;;;;;;;11.00;6.20;;;;;-1.00;100068.00;;;;9859021;29;20259;-80
2024/01/16 18:41:50;;;;;;;15.53;7.80;;;;;-0.90;100065.00;;;;9824396;29;20228;-78
2024/01/16 18:46:51;;;;;;;14.30;8.33;;;;;-0.90;100074.00;;;;9827515;29;20609;-79
2024/01/16 18:51:52;;;;;;;16.20;8.50;;;;;-1.00;100060.00;;;;9811467;29;20232;-82
2024/01/16 18:56:54;;;;;;;14.23;8.40;;;;;-1.00;100048.00;;;;9810650;29;20289;-79
2024/01/16 19:01:55;;;;;;;13.87;8.23;;;;;-1.10;100062.00;;;;9841100;29;20247;-80
2024/01/16 19:06:56;;;;;;;20.73;9.37;;;;;-1.10;100048.00;;;;9841064;29;21054;-81
2024/01/16 19:11:57;;;;;;;14.30;8.23;;;;;-1.10;100050.00;;;;9823460;29;20228;-81
2024/01/16 19:16:59;;;;;;;18.23;9.27;;;;;-1.10;100027.00;;;;9856410;29;20895;-83
2024/01/16 19:22:01;;;;;;;15.57;8.67;;;;;-1.20;100021.00;;;;9828292;29;20248;-81
2024/01/16 19:27:02;;;;;;;13.87;8.77;;;;;-1.30;100016.00;;;;9810769;30;20700;-82
2024/01/16 19:32:03;;;;;;;12.57;8.40;;;;;-1.30;100020.00;;;;9844394;29;20239;-80
2024/01/16 19:37:04;;;;;;;17.30;9.50;;;;;-1.40;100007.00;;;;9808760;30;20911;-80
2024/01/16 19:42:06;;;;;;;18.60;9.97;;;;;-1.50;100007.00;;;;9841114;29;20910;-81
2024/01/16 19:47:08;;;;;;;15.00;10.07;;;;;-1.50;100006.00;;;;9823892;29;20406;-80
2024/01/16 19:52:09;;;;;;;14.33;8.73;;;;;-1.50;100010.00;;;;9837923;29;20855;-80
2024/01/16 19:57:11;;;;;;;22.00;11.03;;;;;-1.50;100006.00;;;;9837471;29;20268;-81
2024/01/16 20:02:13;;;;;;;21.60;10.83;;;;;-1.60;100011.00;;;;9813865;29;20238;-83
2024/01/16 20:07:14;;;;;;;22.40;12.30;;;;;-1.70;100012.00;;;;9825195;30;20235;-80
2024/01/16 20:12:16;;;;;;;22.00;10.90;;;;;-1.70;100003.00;;;;9804897;29;20236;-80
2024/01/16 20:17:19;;;;;;;20.43;12.23;;;;;-1.80;99994.00;;;;9814550;29;20250;-81
2024/01/16 20:22:20;;;;;;;21.67;10.53;;;;;-1.80;99978.00;;;;9811456;29;20236;-83
2024/01/16 20:27:21;;;;;;;18.10;10.37;;;;;-1.80;99977.00;;;;9816000;29;20263;-81
2024/01/16 20:32:22;;;;;;;17.67;10.10;;;;;-1.80;99965.00;;;;9838816;29;20243;-82
2024/01/16 20:37:24;;;;;;;21.13;9.73;;;;;-1.70;99942.00;;;;9810350;29;20256;-82
2024/01/16 20:42:25;;;;;;;16.67;10.73;;;;;-1.80;99932.00;;;;9810846;30;20377;-81
2024/01/16 20:47:29;;;;;;;13.00;9.60;;;;;-1.80;99915.00;;;;9832564;29;20797;-81
2024/01/16 20:52:32;;;;;;;18.97;9.77;;;;;-1.80;99903.00;;;;9822070;29;20240;-80
2024/01/16 20:57:34;;;;;;;14.33;9.07;;;;;-1.80;99897.00;;;;9823034;29;20751;-81
2024/01/16 21:02:35;;;;;;;18.27;9.87;;;;;-1.90;99896.00;;;;9821638;29;20688;-80
2024/01/16 21:07:37;;;;;;;15.60;9.20;;;;;-1.90;99887.00;;;;9831870;29;20322;-81
2024/01/16 21:12:40;;;;;;;19.63;10.33;;;;;-2.00;99867.00;;;;9840215;29;20232;-81
2024/01/16 21:17:41;;;;;;;22.50;9.40;;;;;-2.00;99856.00;;;;9812081;29;20232;-80
2024/01/16 21:22:42;;;;;;;15.50;9.27;;;;;-2.10;99852.00;;;;9811069;29;20228;-80
2024/01/16 21:27:43;;;;;;;12.37;8.37;;;;;-2.00;99839.00;;;;9807191;30;20239;-81
2024/01/16 21:32:45;;;;;;;16.37;8.63;;;;;-2.00;99848.00;;;;9785509;30;20318;-81
2024/01/16 21:37:46;;;;;;;15.43;8.50;;;;;-2.00;99841.00;;;;9788877;29;20228;-80
2024/01/16 21:42:47;;;;;;;15.17;8.13;;;;;-2.00;99845.00;;;;9813256;29;20236;-82
2024/01/16 21:47:48;;;;;;;15.10;8.00;;;;;-2.00;99834.00;;;;9822406;30;20292;-80
2024/01/16 21:52:49;;;;;;;14.50;8.47;;;;;-2.00;99830.00;;;;9809348;30;20240;-80
2024/01/16 21:57:51;;;;;;;14.67;9.03;;;;;-2.10;99820.00;;;;9825950;29;20236;-80
2024/01/16 22:02:56;;;;;;;14.90;8.70;;;;;-2.20;99808.00;;;;9838025;29;20318;-81
2024/01/16 22:07:58;;;;;;;14.50;8.37;;;;;-2.20;99794.00;;;;9825295;29;20241;-82
2024/01/16 22:12:59;;;;;;;13.57;7.90;;;;;-2.20;99795.00;;;;9829524;29;20240;-81
2024/01/16 22:18:01;;;;;;;17.67;8.00;;;;;-2.20;99792.00;;;;9819975;29;20233;-83
2024/01/16 22:23:02;;;;;;;14.23;7.53;;;;;-2.20;99791.00;;;;9827433;29;20244;-79
2024/01/16 22:28:04;;;;;;;14.50;7.80;;;;;-2.20;99787.00;;;;9830936;29;20250;-79
2024/01/16 22:33:06;;;;;;;18.30;7.73;;;;;-2.20;99773.00;;;;9836906;29;20239;-80
2024/01/16 22:38:07;;;;;;;12.00;6.67;;;;;-2.20;99770.00;;;;9810599;30;20229;-80
2024/01/16 22:43:08;;;;;;;11.73;6.73;;;;;-2.20;99768.00;;;;9811821;29;20267;-82
2024/01/16 22:48:10;;;;;;;10.93;6.90;;;;;-2.30;99754.00;;;;9832570;29;20240;-80
2024/01/16 22:53:12;;;;;;;10.43;7.03;;;;;-2.30;99754.00;;;;9788858;30;20244;-87
2024/01/16 22:58:13;;;;;;;11.43;6.87;;;;;-2.40;99741.00;;;;9846754;29;20227;-87
2024/01/16 23:03:14;;;;;;;11.10;7.37;;;;;-2.50;99733.00;;;;9810518;29;20232;-87
2024/01/16 23:08:18;;;;;;;11.03;7.67;;;;;-2.70;99721.00;;;;9819038;29;20964;-86
2024/01/16 23:13:19;;;;;;;13.03;7.53;;;;;-2.90;99717.00;;;;9818860;29;20232;-85
2024/01/16 23:18:20;;;;;;;15.53;7.70;;;;;-2.90;99697.00;;;;9819109;29;20828;-85
2024/01/16 23:23:21;;;;;;;11.63;7.13;;;;;-2.70;99680.00;;;;9800056;29;20668;-85
2024/01/16 23:28:23;;;;;;;12.73;7.87;;;;;-2.50;99670.00;;;;9819921;29;20326;-85
2024/01/16 23:33:24;;;;;;;12.07;8.67;;;;;-2.50;99662.00;;;;9830232;29;20236;-85
2024/01/16 23:38:28;;;;;;;12.23;8.10;;;;;-2.50;99661.00;;;;9859709;29;20611;-86
2024/01/16 23:43:33;;;;;;;15.47;8.87;;;;;-2.50;99656.00;;;;9812249;29;20275;-86
2024/01/16 23:48:34;;;;;;;19.17;8.40;;;;;-2.60;99659.00;;;;9827604;29;20251;-86
2024/01/16 23:53:35;;;;;;;15.77;7.67;;;;;-2.60;99649.00;;;;9841265;30;20240;-84
2024/01/16 23:58:37;;;;;;;14.77;8.83;;;;;-2.70;99646.00;;;;9806936;29;20229;-84
